Agoura, California
Current Conditions -  °F | °C
As of 3:51 AM on Thursday 29 Jan 2015 (Local Time) from KVNY Reporting Station
Clear Clear  
Wind Chill: 63°   Ceiling: Unl
Heat Index: 63°   Visibility: 10mi
Dew Point: 43°   Wind: 6mph
Humidity: 48%   Direction: 10°N
Pressure: 30.04"   Gusts: NA
Location:  34.1232°N, 118.77°W
Report Text: KVNY 291151Z AUTO 01005KT 10SM CLR 17/06 A3004 RMK AO2 SLP167 T01720061 10183 20167 58004
Loading
Personal Weather Stations






























Interactive Weather Map New forecast layout! Learn more

10-Day Weather Forecast

Advertisements
Track Severe Weather on mobile